sensor_id;sensor_type;location;lat;lon;timestamp;temperature;humidity
64654;DHT22;51065;48.884;12.598;2024-03-22T00:01:48;4.20;99.90
64654;DHT22;51065;48.884;12.598;2024-03-22T00:04:15;4.30;99.90
64654;DHT22;51065;48.884;12.598;2024-03-22T00:06:42;4.40;99.90
64654;DHT22;51065;48.884;12.598;2024-03-22T00:09:08;4.40;99.90
64654;DHT22;51065;48.884;12.598;2024-03-22T00:11:34;4.40;99.90
64654;DHT22;51065;48.884;12.598;2024-03-22T00:14:00;4.30;99.90
64654;DHT22;51065;48.884;12.598;2024-03-22T00:16:29;4.30;99.90
64654;DHT22;51065;48.884;12.598;2024-03-22T00:18:55;4.30;99.90
64654;DHT22;51065;48.884;12.598;2024-03-22T00:21:21;4.30;99.90
64654;DHT22;51065;48.884;12.598;2024-03-22T00:23:47;4.40;99.90
64654;DHT22;51065;48.884;12.598;2024-03-22T00:26:13;4.50;99.90
64654;DHT22;51065;48.884;12.598;2024-03-22T00:28:38;4.50;99.90
64654;DHT22;51065;48.884;12.598;2024-03-22T00:31:04;4.60;99.90
64654;DHT22;51065;48.884;12.598;2024-03-22T00:33:29;4.70;99.90
64654;DHT22;51065;48.884;12.598;2024-03-22T00:35:55;4.60;99.90
64654;DHT22;51065;48.884;12.598;2024-03-22T00:38:21;4.60;99.90
64654;DHT22;51065;48.884;12.598;2024-03-22T00:40:46;4.50;99.90
64654;DHT22;51065;48.884;12.598;2024-03-22T00:43:12;4.60;99.90
64654;DHT22;51065;48.884;12.598;2024-03-22T00:45:37;4.50;99.90
64654;DHT22;51065;48.884;12.598;2024-03-22T00:48:03;4.50;99.90
64654;DHT22;51065;48.884;12.598;2024-03-22T00:50:29;4.50;99.90
64654;DHT22;51065;48.884;12.598;2024-03-22T00:52:54;4.50;99.90
64654;DHT22;51065;48.884;12.598;2024-03-22T00:55:23;4.40;99.90
64654;DHT22;51065;48.884;12.598;2024-03-22T00:57:49;4.40;99.90
64654;DHT22;51065;48.884;12.598;2024-03-22T01:00:15;4.30;99.90
64654;DHT22;51065;48.884;12.598;2024-03-22T01:02:43;4.10;99.90
64654;DHT22;51065;48.884;12.598;2024-03-22T01:05:09;4.00;99.90
64654;DHT22;51065;48.884;12.598;2024-03-22T01:07:35;3.80;99.90
64654;DHT22;51065;48.884;12.598;2024-03-22T01:10:01;3.50;99.90
64654;DHT22;51065;48.884;12.598;2024-03-22T01:12:31;3.30;99.90
64654;DHT22;51065;48.884;12.598;2024-03-22T01:14:57;3.20;99.90
64654;DHT22;51065;48.884;12.598;2024-03-22T01:17:23;3.20;99.90
64654;DHT22;51065;48.884;12.598;2024-03-22T01:19:49;3.10;99.90
64654;DHT22;51065;48.884;12.598;2024-03-22T01:22:14;3.00;99.90
64654;DHT22;51065;48.884;12.598;2024-03-22T01:24:40;2.90;99.90
64654;DHT22;51065;48.884;12.598;2024-03-22T01:27:05;2.90;99.90
64654;DHT22;51065;48.884;12.598;2024-03-22T01:29:31;2.70;99.90
64654;DHT22;51065;48.884;12.598;2024-03-22T01:32:00;2.80;99.90
64654;DHT22;51065;48.884;12.598;2024-03-22T01:34:25;2.90;99.90
64654;DHT22;51065;48.884;12.598;2024-03-22T01:36:52;2.90;99.90
64654;DHT22;51065;48.884;12.598;2024-03-22T01:39:18;2.70;99.90
64654;DHT22;51065;48.884;12.598;2024-03-22T01:41:49;2.70;99.90
64654;DHT22;51065;48.884;12.598;2024-03-22T01:44:15;2.80;99.90
64654;DHT22;51065;48.884;12.598;2024-03-22T01:46:41;3.20;99.90
64654;DHT22;51065;48.884;12.598;2024-03-22T01:49:09;3.30;99.90
64654;DHT22;51065;48.884;12.598;2024-03-22T01:51:35;3.40;99.90
64654;DHT22;51065;48.884;12.598;2024-03-22T01:54:02;3.50;99.90
64654;DHT22;51065;48.884;12.598;2024-03-22T01:56:29;3.70;99.90
64654;DHT22;51065;48.884;12.598;2024-03-22T01:58:57;4.00;99.90
64654;DHT22;51065;48.884;12.598;2024-03-22T02:01:24;3.90;99.90
64654;DHT22;51065;48.884;12.598;2024-03-22T02:03:49;3.90;99.90
64654;DHT22;51065;48.884;12.598;2024-03-22T02:06:15;3.80;99.90
64654;DHT22;51065;48.884;12.598;2024-03-22T02:08:40;4.00;99.90
64654;DHT22;51065;48.884;12.598;2024-03-22T02:11:07;3.90;99.90
64654;DHT22;51065;48.884;12.598;2024-03-22T02:13:34;3.90;99.90
64654;DHT22;51065;48.884;12.598;2024-03-22T02:16:03;3.90;99.90
64654;DHT22;51065;48.884;12.598;2024-03-22T02:18:28;3.90;99.90
64654;DHT22;51065;48.884;12.598;2024-03-22T02:20:54;3.80;99.90
64654;DHT22;51065;48.884;12.598;2024-03-22T02:23:32;3.70;99.90
64654;DHT22;51065;48.884;12.598;2024-03-22T02:25:58;3.70;99.90
64654;DHT22;51065;48.884;12.598;2024-03-22T02:28:23;3.60;99.90
64654;DHT22;51065;48.884;12.598;2024-03-22T02:30:49;3.60;99.90
64654;DHT22;51065;48.884;12.598;2024-03-22T02:33:14;3.60;99.90
64654;DHT22;51065;48.884;12.598;2024-03-22T02:35:40;3.70;99.90
64654;DHT22;51065;48.884;12.598;2024-03-22T02:38:06;3.70;99.90
64654;DHT22;51065;48.884;12.598;2024-03-22T02:40:31;3.90;99.90
64654;DHT22;51065;48.884;12.598;2024-03-22T02:42:57;3.90;99.90
64654;DHT22;51065;48.884;12.598;2024-03-22T02:45:22;3.80;99.90
64654;DHT22;51065;48.884;12.598;2024-03-22T02:47:48;3.80;99.90
64654;DHT22;51065;48.884;12.598;2024-03-22T02:50:13;3.70;99.90
64654;DHT22;51065;48.884;12.598;2024-03-22T02:52:39;3.70;99.90
64654;DHT22;51065;48.884;12.598;2024-03-22T02:55:05;3.60;99.90
64654;DHT22;51065;48.884;12.598;2024-03-22T02:57:30;3.60;99.90
64654;DHT22;51065;48.884;12.598;2024-03-22T02:59:56;3.60;99.90
64654;DHT22;51065;48.884;12.598;2024-03-22T03:02:21;3.60;99.90
64654;DHT22;51065;48.884;12.598;2024-03-22T03:04:47;3.70;99.90
64654;DHT22;51065;48.884;12.598;2024-03-22T03:07:12;3.70;99.90
64654;DHT22;51065;48.884;12.598;2024-03-22T03:09:38;3.70;99.90
64654;DHT22;51065;48.884;12.598;2024-03-22T03:12:03;3.70;99.90
64654;DHT22;51065;48.884;12.598;2024-03-22T03:14:29;3.60;99.90
64654;DHT22;51065;48.884;12.598;2024-03-22T03:16:54;3.60;99.90
64654;DHT22;51065;48.884;12.598;2024-03-22T03:19:23;3.60;99.90
64654;DHT22;51065;48.884;12.598;2024-03-22T03:21:49;3.70;99.90
64654;DHT22;51065;48.884;12.598;2024-03-22T03:24:14;3.80;99.90
64654;DHT22;51065;48.884;12.598;2024-03-22T03:26:40;3.80;99.90
64654;DHT22;51065;48.884;12.598;2024-03-22T03:29:06;3.80;99.90
64654;DHT22;51065;48.884;12.598;2024-03-22T03:31:31;3.90;99.90
64654;DHT22;51065;48.884;12.598;2024-03-22T03:33:57;3.80;99.90
64654;DHT22;51065;48.884;12.598;2024-03-22T03:36:23;3.90;99.90
64654;DHT22;51065;48.884;12.598;2024-03-22T03:38:48;3.90;99.90
64654;DHT22;51065;48.884;12.598;2024-03-22T03:41:14;3.80;99.90
64654;DHT22;51065;48.884;12.598;2024-03-22T03:43:39;3.80;99.90
64654;DHT22;51065;48.884;12.598;2024-03-22T03:46:05;3.70;99.90
64654;DHT22;51065;48.884;12.598;2024-03-22T03:48:30;3.70;99.90
64654;DHT22;51065;48.884;12.598;2024-03-22T03:50:56;3.50;99.90
64654;DHT22;51065;48.884;12.598;2024-03-22T03:53:24;3.60;99.90
64654;DHT22;51065;48.884;12.598;2024-03-22T03:55:50;3.60;99.90
64654;DHT22;51065;48.884;12.598;2024-03-22T03:58:16;3.40;99.90
64654;DHT22;51065;48.884;12.598;2024-03-22T04:00:43;3.40;99.90
64654;DHT22;51065;48.884;12.598;2024-03-22T04:03:08;3.30;99.90
64654;DHT22;51065;48.884;12.598;2024-03-22T04:05:34;3.30;99.90
64654;DHT22;51065;48.884;12.598;2024-03-22T04:08:00;3.30;99.90
64654;DHT22;51065;48.884;12.598;2024-03-22T04:10:25;3.20;99.90
64654;DHT22;51065;48.884;12.598;2024-03-22T04:12:51;3.30;99.90
64654;DHT22;51065;48.884;12.598;2024-03-22T04:15:16;3.40;99.90
64654;DHT22;51065;48.884;12.598;2024-03-22T04:17:42;3.20;99.90
64654;DHT22;51065;48.884;12.598;2024-03-22T04:20:07;3.20;99.90
64654;DHT22;51065;48.884;12.598;2024-03-22T04:22:34;3.30;99.90
64654;DHT22;51065;48.884;12.598;2024-03-22T04:24:59;3.30;99.90
64654;DHT22;51065;48.884;12.598;2024-03-22T04:27:25;3.20;99.90
64654;DHT22;51065;48.884;12.598;2024-03-22T04:29:50;3.20;99.90
64654;DHT22;51065;48.884;12.598;2024-03-22T04:32:17;3.30;99.90
64654;DHT22;51065;48.884;12.598;2024-03-22T04:34:42;3.40;99.90
64654;DHT22;51065;48.884;12.598;2024-03-22T04:37:08;3.40;99.90
64654;DHT22;51065;48.884;12.598;2024-03-22T04:39:35;3.40;99.90
64654;DHT22;51065;48.884;12.598;2024-03-22T04:42:01;3.40;99.90
64654;DHT22;51065;48.884;12.598;2024-03-22T04:44:27;3.40;99.90
64654;DHT22;51065;48.884;12.598;2024-03-22T04:46:53;3.40;99.90
64654;DHT22;51065;48.884;12.598;2024-03-22T04:49:18;3.40;99.90
64654;DHT22;51065;48.884;12.598;2024-03-22T04:51:44;3.40;99.90
64654;DHT22;51065;48.884;12.598;2024-03-22T04:54:10;3.40;99.90
64654;DHT22;51065;48.884;12.598;2024-03-22T04:56:35;3.30;99.90
64654;DHT22;51065;48.884;12.598;2024-03-22T04:59:01;3.40;99.90
64654;DHT22;51065;48.884;12.598;2024-03-22T05:01:26;3.40;99.90
64654;DHT22;51065;48.884;12.598;2024-03-22T05:03:52;3.50;99.90
64654;DHT22;51065;48.884;12.598;2024-03-22T05:06:17;3.60;99.90
64654;DHT22;51065;48.884;12.598;2024-03-22T05:08:43;3.60;99.90
64654;DHT22;51065;48.884;12.598;2024-03-22T05:11:09;3.70;99.90
64654;DHT22;51065;48.884;12.598;2024-03-22T05:13:34;3.70;99.90
64654;DHT22;51065;48.884;12.598;2024-03-22T05:16:00;3.70;99.90
64654;DHT22;51065;48.884;12.598;2024-03-22T05:18:26;3.80;99.90
64654;DHT22;51065;48.884;12.598;2024-03-22T05:20:52;3.90;99.90
64654;DHT22;51065;48.884;12.598;2024-03-22T05:23:18;3.90;99.90
64654;DHT22;51065;48.884;12.598;2024-03-22T05:25:43;4.00;99.90
64654;DHT22;51065;48.884;12.598;2024-03-22T05:28:09;4.00;99.90
64654;DHT22;51065;48.884;12.598;2024-03-22T05:30:34;4.00;99.90
64654;DHT22;51065;48.884;12.598;2024-03-22T05:33:00;4.10;99.90
64654;DHT22;51065;48.884;12.598;2024-03-22T05:35:27;4.00;99.90
64654;DHT22;51065;48.884;12.598;2024-03-22T05:37:52;4.10;99.90
64654;DHT22;51065;48.884;12.598;2024-03-22T05:40:18;4.10;99.90
64654;DHT22;51065;48.884;12.598;2024-03-22T05:42:43;4.20;99.90
64654;DHT22;51065;48.884;12.598;2024-03-22T05:45:09;4.30;99.90
64654;DHT22;51065;48.884;12.598;2024-03-22T05:47:34;4.30;99.90
64654;DHT22;51065;48.884;12.598;2024-03-22T05:50:00;4.40;99.90
64654;DHT22;51065;48.884;12.598;2024-03-22T05:52:26;4.50;99.90
64654;DHT22;51065;48.884;12.598;2024-03-22T05:54:52;4.60;99.90
64654;DHT22;51065;48.884;12.598;2024-03-22T05:57:18;4.60;99.90
64654;DHT22;51065;48.884;12.598;2024-03-22T05:59:43;4.60;99.90
64654;DHT22;51065;48.884;12.598;2024-03-22T06:02:09;4.70;99.90
64654;DHT22;51065;48.884;12.598;2024-03-22T06:04:34;4.90;99.90
64654;DHT22;51065;48.884;12.598;2024-03-22T06:07:00;5.00;99.90
64654;DHT22;51065;48.884;12.598;2024-03-22T06:09:29;4.90;99.90
64654;DHT22;51065;48.884;12.598;2024-03-22T06:12:06;5.00;99.90
64654;DHT22;51065;48.884;12.598;2024-03-22T06:14:33;5.10;99.90
64654;DHT22;51065;48.884;12.598;2024-03-22T06:16:58;5.10;99.90
64654;DHT22;51065;48.884;12.598;2024-03-22T06:19:24;5.20;99.90
64654;DHT22;51065;48.884;12.598;2024-03-22T06:21:50;5.10;99.90
64654;DHT22;51065;48.884;12.598;2024-03-22T06:24:15;5.20;99.90
64654;DHT22;51065;48.884;12.598;2024-03-22T06:26:41;5.20;99.90
64654;DHT22;51065;48.884;12.598;2024-03-22T06:29:06;5.30;99.90
64654;DHT22;51065;48.884;12.598;2024-03-22T06:31:32;5.20;99.90
64654;DHT22;51065;48.884;12.598;2024-03-22T06:33:57;5.20;99.90
64654;DHT22;51065;48.884;12.598;2024-03-22T06:36:28;5.20;99.90
64654;DHT22;51065;48.884;12.598;2024-03-22T06:38:54;5.20;99.90
64654;DHT22;51065;48.884;12.598;2024-03-22T06:41:19;5.30;99.90
64654;DHT22;51065;48.884;12.598;2024-03-22T06:43:45;5.30;99.90
64654;DHT22;51065;48.884;12.598;2024-03-22T06:46:11;5.40;99.90
64654;DHT22;51065;48.884;12.598;2024-03-22T06:48:37;5.50;99.90
64654;DHT22;51065;48.884;12.598;2024-03-22T06:51:02;5.40;99.90
64654;DHT22;51065;48.884;12.598;2024-03-22T06:53:28;5.50;99.90
64654;DHT22;51065;48.884;12.598;2024-03-22T06:55:54;5.50;99.90
64654;DHT22;51065;48.884;12.598;2024-03-22T06:58:19;5.30;99.90
64654;DHT22;51065;48.884;12.598;2024-03-22T07:00:45;5.40;99.90
64654;DHT22;51065;48.884;12.598;2024-03-22T07:03:10;5.60;99.90
64654;DHT22;51065;48.884;12.598;2024-03-22T07:05:37;5.70;99.90
64654;DHT22;51065;48.884;12.598;2024-03-22T07:08:02;5.70;99.90
64654;DHT22;51065;48.884;12.598;2024-03-22T07:10:28;5.70;99.90
64654;DHT22;51065;48.884;12.598;2024-03-22T07:12:54;5.60;99.90
64654;DHT22;51065;48.884;12.598;2024-03-22T07:15:23;5.50;99.90
64654;DHT22;51065;48.884;12.598;2024-03-22T07:17:48;5.50;99.90
64654;DHT22;51065;48.884;12.598;2024-03-22T07:20:14;5.60;99.90
64654;DHT22;51065;48.884;12.598;2024-03-22T07:22:40;5.70;99.90
64654;DHT22;51065;48.884;12.598;2024-03-22T07:25:05;5.80;99.90
64654;DHT22;51065;48.884;12.598;2024-03-22T07:27:31;5.70;99.90
64654;DHT22;51065;48.884;12.598;2024-03-22T07:29:57;6.00;99.90
64654;DHT22;51065;48.884;12.598;2024-03-22T07:32:23;6.10;99.90
64654;DHT22;51065;48.884;12.598;2024-03-22T07:34:48;6.00;99.90
64654;DHT22;51065;48.884;12.598;2024-03-22T07:37:14;6.00;99.90
64654;DHT22;51065;48.884;12.598;2024-03-22T07:39:39;6.10;99.90
64654;DHT22;51065;48.884;12.598;2024-03-22T07:42:05;6.10;99.90
64654;DHT22;51065;48.884;12.598;2024-03-22T07:44:31;6.00;99.90
64654;DHT22;51065;48.884;12.598;2024-03-22T07:46:56;6.00;99.90
64654;DHT22;51065;48.884;12.598;2024-03-22T07:49:22;6.10;99.90
64654;DHT22;51065;48.884;12.598;2024-03-22T07:51:48;6.10;99.90
64654;DHT22;51065;48.884;12.598;2024-03-22T07:54:13;5.90;99.90
64654;DHT22;51065;48.884;12.598;2024-03-22T07:56:39;6.10;99.90
64654;DHT22;51065;48.884;12.598;2024-03-22T07:59:04;6.00;99.90
64654;DHT22;51065;48.884;12.598;2024-03-22T08:01:30;6.10;99.90
64654;DHT22;51065;48.884;12.598;2024-03-22T08:03:55;6.30;99.90
64654;DHT22;51065;48.884;12.598;2024-03-22T08:06:21;6.30;99.90
64654;DHT22;51065;48.884;12.598;2024-03-22T08:08:47;6.40;99.90
64654;DHT22;51065;48.884;12.598;2024-03-22T08:11:12;6.50;99.90
64654;DHT22;51065;48.884;12.598;2024-03-22T08:13:38;6.70;99.90
64654;DHT22;51065;48.884;12.598;2024-03-22T08:16:04;6.90;99.90
64654;DHT22;51065;48.884;12.598;2024-03-22T08:18:31;7.20;99.90
64654;DHT22;51065;48.884;12.598;2024-03-22T08:20:58;7.50;99.90
64654;DHT22;51065;48.884;12.598;2024-03-22T08:23:24;7.50;99.90
64654;DHT22;51065;48.884;12.598;2024-03-22T08:25:50;7.70;99.90
64654;DHT22;51065;48.884;12.598;2024-03-22T08:28:15;7.90;99.90
64654;DHT22;51065;48.884;12.598;2024-03-22T08:30:42;7.80;99.90
64654;DHT22;51065;48.884;12.598;2024-03-22T08:33:10;7.80;99.90
64654;DHT22;51065;48.884;12.598;2024-03-22T08:35:37;7.70;99.90
64654;DHT22;51065;48.884;12.598;2024-03-22T08:38:02;7.70;99.90
64654;DHT22;51065;48.884;12.598;2024-03-22T08:40:29;7.70;99.90
64654;DHT22;51065;48.884;12.598;2024-03-22T08:42:55;7.50;99.90
64654;DHT22;51065;48.884;12.598;2024-03-22T08:45:20;7.50;99.90
64654;DHT22;51065;48.884;12.598;2024-03-22T08:47:46;7.50;99.90
64654;DHT22;51065;48.884;12.598;2024-03-22T08:50:12;7.70;99.90
64654;DHT22;51065;48.884;12.598;2024-03-22T08:52:38;8.10;99.90
64654;DHT22;51065;48.884;12.598;2024-03-22T08:55:04;8.40;99.90
64654;DHT22;51065;48.884;12.598;2024-03-22T08:57:31;8.40;99.90
64654;DHT22;51065;48.884;12.598;2024-03-22T08:59:57;8.50;99.90
64654;DHT22;51065;48.884;12.598;2024-03-22T09:02:22;8.30;99.90
64654;DHT22;51065;48.884;12.598;2024-03-22T09:04:48;8.60;99.90
64654;DHT22;51065;48.884;12.598;2024-03-22T09:07:13;8.50;99.90
64654;DHT22;51065;48.884;12.598;2024-03-22T09:09:39;8.50;99.90
64654;DHT22;51065;48.884;12.598;2024-03-22T09:12:05;8.40;99.90
64654;DHT22;51065;48.884;12.598;2024-03-22T09:14:30;8.30;99.90
64654;DHT22;51065;48.884;12.598;2024-03-22T09:16:56;8.30;99.90
64654;DHT22;51065;48.884;12.598;2024-03-22T09:19:22;8.70;99.90
64654;DHT22;51065;48.884;12.598;2024-03-22T09:21:48;9.40;99.90
64654;DHT22;51065;48.884;12.598;2024-03-22T09:24:13;9.10;99.90
64654;DHT22;51065;48.884;12.598;2024-03-22T09:26:39;8.90;99.90
64654;DHT22;51065;48.884;12.598;2024-03-22T09:29:05;9.10;99.90
64654;DHT22;51065;48.884;12.598;2024-03-22T09:31:30;9.10;99.90
64654;DHT22;51065;48.884;12.598;2024-03-22T09:33:57;9.30;99.90
64654;DHT22;51065;48.884;12.598;2024-03-22T09:36:23;9.30;99.90
64654;DHT22;51065;48.884;12.598;2024-03-22T09:38:50;9.60;99.90
64654;DHT22;51065;48.884;12.598;2024-03-22T09:41:15;9.80;99.90
64654;DHT22;51065;48.884;12.598;2024-03-22T09:43:44;9.90;99.90
64654;DHT22;51065;48.884;12.598;2024-03-22T09:46:13;10.10;99.90
64654;DHT22;51065;48.884;12.598;2024-03-22T09:48:41;10.50;99.90
64654;DHT22;51065;48.884;12.598;2024-03-22T09:51:07;11.00;99.90
64654;DHT22;51065;48.884;12.598;2024-03-22T09:53:33;11.40;99.90
64654;DHT22;51065;48.884;12.598;2024-03-22T09:55:59;11.20;99.90
64654;DHT22;51065;48.884;12.598;2024-03-22T09:58:27;11.10;99.90
64654;DHT22;51065;48.884;12.598;2024-03-22T10:00:52;12.00;99.90
64654;DHT22;51065;48.884;12.598;2024-03-22T10:03:18;12.00;99.90
64654;DHT22;51065;48.884;12.598;2024-03-22T10:05:44;12.10;99.90
64654;DHT22;51065;48.884;12.598;2024-03-22T10:08:09;12.90;99.90
64654;DHT22;51065;48.884;12.598;2024-03-22T10:10:35;13.20;99.90
64654;DHT22;51065;48.884;12.598;2024-03-22T10:13:04;13.80;99.90
64654;DHT22;51065;48.884;12.598;2024-03-22T10:15:32;13.40;1.00
64654;DHT22;51065;48.884;12.598;2024-03-22T10:17:58;14.10;1.00
64654;DHT22;51065;48.884;12.598;2024-03-22T10:20:24;14.40;1.00
